createdAt,value
2022-08-27T00:00:31.139Z,71.20
2022-08-27T00:02:58.018Z,70.40
2022-08-27T00:05:24.926Z,70.70
2022-08-27T00:07:54.934Z,69.80
2022-08-27T00:10:25.405Z,70.00
2022-08-27T00:12:53.580Z,69.00
2022-08-27T00:15:20.484Z,67.80
2022-08-27T00:17:47.735Z,67.30
2022-08-27T00:20:17.839Z,66.80
2022-08-27T00:22:44.928Z,66.10
2022-08-27T00:25:12.822Z,65.60
2022-08-27T00:27:40.464Z,65.30
2022-08-27T00:30:12.906Z,65.60
2022-08-27T00:32:40.555Z,66.20
2022-08-27T00:35:08.570Z,66.00
2022-08-27T00:37:35.922Z,66.70
2022-08-27T00:40:06.779Z,66.50
2022-08-27T00:42:33.690Z,66.00
2022-08-27T00:45:01.401Z,66.10
2022-08-27T00:47:31.617Z,65.90
2022-08-27T00:50:07.956Z,66.00
2022-08-27T00:52:48.829Z,66.40
2022-08-27T00:55:25.452Z,66.30
2022-08-27T00:58:28.555Z,66.60
2022-08-27T01:00:56.473Z,66.80
2022-08-27T01:03:26.142Z,67.30
2022-08-27T01:05:56.897Z,66.70
2022-08-27T01:08:26.736Z,66.90
2022-08-27T01:10:56.843Z,67.30
2022-08-27T01:13:54.486Z,67.00
2022-08-27T01:16:20.805Z,66.70
2022-08-27T01:18:49.292Z,67.50
2022-08-27T01:21:41.670Z,68.00
2022-08-27T01:24:26.953Z,68.40
2022-08-27T01:26:54.653Z,68.30
2022-08-27T01:29:21.444Z,68.10
2022-08-27T01:31:48.311Z,68.20
2022-08-27T01:34:15.340Z,68.90
2022-08-27T01:36:42.111Z,69.80
2022-08-27T01:39:08.903Z,70.00
2022-08-27T01:41:35.841Z,70.70
2022-08-27T01:44:04.488Z,70.50
2022-08-27T01:46:31.500Z,70.40
2022-08-27T01:48:58.535Z,71.00
2022-08-27T01:51:25.735Z,71.30
2022-08-27T01:53:52.554Z,71.10
2022-08-27T01:56:20.392Z,71.30
2022-08-27T01:58:47.177Z,71.00
2022-08-27T02:01:16.897Z,71.40
2022-08-27T02:03:47.236Z,71.80
2022-08-27T02:06:14.852Z,72.30
2022-08-27T02:08:41.679Z,72.60
2022-08-27T02:11:08.923Z,73.80
2022-08-27T02:13:36.173Z,73.60
2022-08-27T02:16:03.360Z,74.40
2022-08-27T02:18:30.148Z,75.40
2022-08-27T02:20:56.919Z,75.60
2022-08-27T02:23:23.689Z,76.10
2022-08-27T02:25:51.188Z,75.80
2022-08-27T02:28:17.966Z,75.50
2022-08-27T02:30:44.926Z,75.40
2022-08-27T02:33:11.842Z,75.70
2022-08-27T02:35:40.506Z,76.10
2022-08-27T02:38:08.227Z,76.20
2022-08-27T02:40:35.989Z,76.50
2022-08-27T02:43:03.355Z,77.70
2022-08-27T02:45:30.208Z,76.90
2022-08-27T02:47:57.063Z,77.90
2022-08-27T02:50:26.903Z,78.40
2022-08-27T02:52:54.828Z,78.90
2022-08-27T02:55:22.515Z,79.20
2022-08-27T02:57:49.536Z,78.90
2022-08-27T03:00:19.019Z,79.10
2022-08-27T03:02:45.961Z,79.60
2022-08-27T03:05:13.827Z,80.30
2022-08-27T03:07:41.229Z,80.70
2022-08-27T03:10:09.649Z,81.10
2022-08-27T03:12:36.817Z,81.20
2022-08-27T03:15:05.236Z,82.30
2022-08-27T03:17:50.477Z,83.20
2022-08-27T03:20:18.861Z,83.70
2022-08-27T03:22:46.301Z,83.90
2022-08-27T03:25:13.688Z,84.30
2022-08-27T03:27:40.711Z,84.10
2022-08-27T03:30:11.937Z,84.00
2022-08-27T03:32:39.183Z,83.90
2022-08-27T03:35:06.563Z,84.00
2022-08-27T03:37:33.357Z,82.80
2022-08-27T03:40:00.219Z,82.60
2022-08-27T03:42:27.231Z,82.60
2022-08-27T03:44:54.019Z,81.90
2022-08-27T03:47:22.556Z,81.90
2022-08-27T03:49:49.958Z,81.40
2022-08-27T03:52:17.066Z,81.30
2022-08-27T03:54:43.905Z,81.00
2022-08-27T03:57:11.433Z,81.20
2022-08-27T03:59:38.275Z,81.30
2022-08-27T04:02:05.463Z,82.20
2022-08-27T04:04:32.411Z,82.10
2022-08-27T04:06:59.905Z,82.10
2022-08-27T04:09:26.785Z,82.00
2022-08-27T04:11:53.928Z,81.90
2022-08-27T04:14:26.875Z,81.90
2022-08-27T04:16:56.240Z,81.20
2022-08-27T04:19:27.981Z,80.60
2022-08-27T04:22:00.311Z,81.00
2022-08-27T04:24:27.331Z,81.10
2022-08-27T04:26:54.135Z,81.00
2022-08-27T04:29:20.909Z,81.50
2022-08-27T04:31:48.024Z,81.50
2022-08-27T04:34:16.528Z,81.70
2022-08-27T04:36:43.277Z,81.40
2022-08-27T04:39:10.081Z,81.40
2022-08-27T04:41:36.860Z,80.90
2022-08-27T04:44:06.866Z,81.00
2022-08-27T04:46:37.233Z,80.90
2022-08-27T04:49:12.554Z,81.40
2022-08-27T04:51:42.334Z,81.10
2022-08-27T04:54:10.764Z,82.20
2022-08-27T04:56:37.949Z,82.50
2022-08-27T04:59:08.078Z,82.60
2022-08-27T05:01:35.326Z,82.50
2022-08-27T05:04:02.262Z,83.20
2022-08-27T05:06:29.591Z,84.00
2022-08-27T05:08:56.805Z,84.00
2022-08-27T05:11:27.844Z,83.80
2022-08-27T05:13:54.639Z,83.20
2022-08-27T05:16:23.434Z,84.10
2022-08-27T05:18:51.866Z,84.70
2022-08-27T05:21:23.326Z,85.30
2022-08-27T05:23:51.015Z,85.80
2022-08-27T05:26:18.150Z,84.80
2022-08-27T05:28:45.330Z,84.20
2022-08-27T05:31:13.754Z,84.00
2022-08-27T05:33:41.675Z,84.10
2022-08-27T05:36:14.705Z,84.90
2022-08-27T05:38:42.554Z,84.70
2022-08-27T05:41:12.199Z,84.00
2022-08-27T05:43:41.384Z,84.70
2022-08-27T05:46:12.225Z,83.50
2022-08-27T05:48:40.140Z,83.60
2022-08-27T05:51:12.235Z,83.00
2022-08-27T05:53:40.051Z,83.30
2022-08-27T05:56:20.540Z,82.80
2022-08-27T05:59:07.171Z,82.50
2022-08-27T06:01:38.617Z,82.30
2022-08-27T06:04:06.521Z,82.20
2022-08-27T06:06:38.714Z,81.80
2022-08-27T06:09:06.140Z,80.70
2022-08-27T06:11:33.142Z,80.60
2022-08-27T06:13:59.969Z,80.40
2022-08-27T06:16:27.940Z,80.00
2022-08-27T06:18:57.319Z,79.60
2022-08-27T06:21:25.052Z,78.80
2022-08-27T06:23:53.711Z,78.50
2022-08-27T06:26:23.566Z,79.10
2022-08-27T06:28:50.680Z,78.00
2022-08-27T06:31:21.291Z,78.60
2022-08-27T06:33:49.976Z,78.20
2022-08-27T06:36:20.191Z,77.60
2022-08-27T06:38:47.546Z,77.60
2022-08-27T06:41:23.611Z,77.60
2022-08-27T06:43:51.921Z,77.30
2022-08-27T06:46:22.078Z,76.60
2022-08-27T06:48:53.001Z,75.60
2022-08-27T06:51:26.397Z,75.90
2022-08-27T06:53:55.282Z,76.10
2022-08-27T06:56:22.468Z,76.10
2022-08-27T06:58:55.320Z,75.30
2022-08-27T07:01:34.220Z,75.30
2022-08-27T07:04:04.212Z,76.00
2022-08-27T07:06:33.894Z,77.60
2022-08-27T07:09:01.044Z,79.50
2022-08-27T07:11:29.568Z,79.50
2022-08-27T07:13:56.354Z,78.50
2022-08-27T07:16:25.257Z,79.50
2022-08-27T07:18:54.071Z,80.00
2022-08-27T07:21:21.807Z,80.30
2022-08-27T07:23:50.057Z,80.60
2022-08-27T07:26:17.860Z,80.10
2022-08-27T07:28:45.001Z,80.30
2022-08-27T07:31:17.172Z,80.50
2022-08-27T07:33:50.549Z,80.60
2022-08-27T07:36:20.731Z,81.40
2022-08-27T07:38:52.736Z,81.60
2022-08-27T07:41:24.935Z,81.10
2022-08-27T07:44:16.015Z,81.30
2022-08-27T07:46:47.619Z,80.60
2022-08-27T07:49:15.799Z,80.00
2022-08-27T07:51:42.577Z,78.00
2022-08-27T07:54:09.387Z,76.40
2022-08-27T07:56:36.145Z,75.30
2022-08-27T07:59:02.932Z,74.40
2022-08-27T08:01:30.118Z,74.40
2022-08-27T08:03:57.034Z,75.40
2022-08-27T08:06:23.860Z,75.70
2022-08-27T08:08:50.667Z,75.60
2022-08-27T08:11:18.295Z,75.20
2022-08-27T08:13:46.530Z,74.00
2022-08-27T08:16:14.458Z,73.10
2022-08-27T08:18:41.850Z,74.30
2022-08-27T08:21:11.560Z,74.60
2022-08-27T08:23:38.619Z,75.90
2022-08-27T08:26:06.938Z,76.60
2022-08-27T08:28:34.333Z,77.30
2022-08-27T08:31:01.548Z,77.10
2022-08-27T08:33:28.900Z,77.90
2022-08-27T08:36:01.670Z,77.30
2022-08-27T08:38:28.460Z,76.00
2022-08-27T08:40:55.738Z,75.40
2022-08-27T08:43:42.404Z,75.20
2022-08-27T08:46:24.753Z,71.80
2022-08-27T08:48:57.493Z,72.00
2022-08-27T08:51:31.413Z,72.40
2022-08-27T08:54:02.717Z,73.10
2022-08-27T08:56:40.466Z,74.70
2022-08-27T08:59:19.462Z,74.30
2022-08-27T09:01:46.367Z,72.70
2022-08-27T09:04:13.576Z,71.80
2022-08-27T09:06:45.829Z,72.00
2022-08-27T09:09:22.187Z,72.10
2022-08-27T09:12:03.083Z,71.60
2022-08-27T09:14:46.313Z,71.30
2022-08-27T09:17:13.868Z,70.00
2022-08-27T09:19:41.632Z,69.50
2022-08-27T09:22:40.324Z,67.60
2022-08-27T09:25:20.713Z,66.90
2022-08-27T09:27:51.807Z,66.90
2022-08-27T09:30:29.915Z,67.20
2022-08-27T09:33:04.422Z,67.80
2022-08-27T09:35:45.842Z,67.70
2022-08-27T09:38:29.583Z,66.20
2022-08-27T09:41:01.026Z,62.20
2022-08-27T09:43:30.330Z,58.80
2022-08-27T09:46:21.926Z,59.40
2022-08-27T09:48:52.270Z,60.00
2022-08-27T09:51:41.141Z,59.60
2022-08-27T09:54:08.614Z,58.20
2022-08-27T09:56:37.175Z,58.30
2022-08-27T09:59:13.214Z,57.10
2022-08-27T10:01:57.789Z,54.80
2022-08-27T10:04:51.053Z,53.00
2022-08-27T10:07:37.289Z,53.20
2022-08-27T10:10:10.746Z,52.50
2022-08-27T10:12:59.040Z,51.10
2022-08-27T10:15:41.324Z,51.20
2022-08-27T10:18:15.771Z,48.70
2022-08-27T10:21:12.410Z,48.20
2022-08-27T10:23:46.624Z,45.80
2022-08-27T10:26:24.601Z,46.60
2022-08-27T10:29:03.199Z,45.30
2022-08-27T10:32:04.274Z,45.80
2022-08-27T10:34:38.786Z,44.10
2022-08-27T10:37:16.493Z,44.50
2022-08-27T10:40:09.366Z,44.40
2022-08-27T10:42:48.514Z,46.20
2022-08-27T10:45:30.566Z,43.90
2022-08-27T10:48:26.037Z,43.50
2022-08-27T10:51:04.503Z,43.40
2022-08-27T10:54:00.135Z,44.30
2022-08-27T10:56:32.890Z,44.40
2022-08-27T10:59:36.426Z,43.50
2022-08-27T11:02:33.365Z,42.90
2022-08-27T11:05:06.420Z,41.90
2022-08-27T11:07:38.334Z,41.40
2022-08-27T11:10:21.092Z,42.90
2022-08-27T11:12:51.692Z,41.90
2022-08-27T11:15:24.925Z,42.50
2022-08-27T11:17:59.709Z,43.70
2022-08-27T11:20:32.249Z,43.10
2022-08-27T11:23:02.583Z,43.70
2022-08-27T11:25:51.080Z,43.60
2022-08-27T11:28:48.925Z,44.60
2022-08-27T11:31:33.212Z,43.40
2022-08-27T11:34:22.351Z,42.10
2022-08-27T11:37:04.505Z,43.20
2022-08-27T11:39:36.982Z,42.60
2022-08-27T11:42:37.875Z,42.40
2022-08-27T11:45:18.481Z,42.30
2022-08-27T11:48:02.081Z,40.90
2022-08-27T11:50:31.203Z,41.40
2022-08-27T11:53:06.967Z,43.00
2022-08-27T11:55:36.645Z,44.00
2022-08-27T11:58:19.213Z,44.90
2022-08-27T12:00:48.258Z,44.00
2022-08-27T12:03:35.500Z,44.90
2022-08-27T12:06:26.418Z,46.20
2022-08-27T12:08:54.118Z,44.90
2022-08-27T12:11:31.200Z,44.70
2022-08-27T12:14:08.349Z,46.60
2022-08-27T12:16:41.914Z,44.80
2022-08-27T12:19:32.417Z,43.40
2022-08-27T12:22:07.787Z,44.10
2022-08-27T12:24:43.550Z,44.40
2022-08-27T12:27:22.293Z,44.40
2022-08-27T12:29:53.948Z,44.60
2022-08-27T12:32:44.296Z,44.40
2022-08-27T12:35:15.274Z,44.70
2022-08-27T12:38:10.949Z,42.70
2022-08-27T12:40:51.973Z,41.50
2022-08-27T12:43:26.173Z,41.40
2022-08-27T12:45:57.488Z,40.20
2022-08-27T12:48:28.363Z,39.10
2022-08-27T12:50:58.207Z,40.00
2022-08-27T12:53:34.844Z,41.50
2022-08-27T12:56:22.401Z,42.70
2022-08-27T12:59:29.709Z,44.80
2022-08-27T13:02:14.389Z,46.60
2022-08-27T13:04:43.441Z,48.90
2022-08-27T13:07:10.231Z,54.80
2022-08-27T13:09:39.624Z,59.00
2022-08-27T13:12:15.373Z,63.50
2022-08-27T13:14:42.445Z,70.40
2022-08-27T13:17:22.616Z,74.00
2022-08-27T13:19:57.473Z,80.40
2022-08-27T13:22:29.438Z,88.30
2022-08-27T13:24:56.852Z,88.40
2022-08-27T13:27:30.408Z,91.40
2022-08-27T13:30:01.553Z,91.80
2022-08-27T13:32:30.817Z,90.70
2022-08-27T13:35:00.113Z,91.10
2022-08-27T13:37:36.134Z,90.60
2022-08-27T13:40:03.828Z,91.40
2022-08-27T13:42:31.664Z,92.20
2022-08-27T13:45:03.526Z,92.90
2022-08-27T13:47:30.818Z,92.90
2022-08-27T13:50:11.573Z,93.30
2022-08-27T13:53:01.261Z,93.70
2022-08-27T13:55:30.036Z,93.10
2022-08-27T13:58:00.711Z,93.20
2022-08-27T14:00:33.725Z,94.30
2022-08-27T14:03:02.241Z,95.60
2022-08-27T14:05:33.902Z,95.80
2022-08-27T14:08:13.533Z,95.20
2022-08-27T14:10:45.423Z,95.80
2022-08-27T14:13:18.141Z,95.90
2022-08-27T14:15:52.740Z,95.20
2022-08-27T14:18:57.425Z,95.00
2022-08-27T14:21:20.571Z,94.50
2022-08-27T14:23:47.775Z,95.20
2022-08-27T14:26:15.509Z,94.10
2022-08-27T14:28:42.724Z,92.90
2022-08-27T14:31:09.773Z,93.10
2022-08-27T14:33:36.631Z,92.50
2022-08-27T14:36:04.003Z,92.40
2022-08-27T14:38:32.355Z,92.00
2022-08-27T14:40:59.346Z,91.60
2022-08-27T14:43:27.200Z,91.10
2022-08-27T14:45:54.359Z,89.50
2022-08-27T14:48:27.621Z,84.50
2022-08-27T14:50:56.742Z,80.90
2022-08-27T14:53:24.443Z,76.60
2022-08-27T14:55:52.101Z,76.80
2022-08-27T14:58:19.627Z,76.00
2022-08-27T15:00:46.577Z,76.00
2022-08-27T15:03:13.865Z,76.40
2022-08-27T15:05:40.865Z,75.10
2022-08-27T15:08:13.347Z,74.40
2022-08-27T15:10:40.811Z,72.50
2022-08-27T15:13:09.533Z,74.80
2022-08-27T15:15:36.651Z,73.00
2022-08-27T15:18:03.816Z,70.20
2022-08-27T15:20:31.164Z,66.50
2022-08-27T15:22:58.811Z,67.60
2022-08-27T15:25:25.848Z,66.00
2022-08-27T15:27:52.957Z,66.30
2022-08-27T15:30:27.910Z,65.40
2022-08-27T15:32:55.531Z,64.00
2022-08-27T15:35:26.562Z,64.30
2022-08-27T15:37:57.933Z,62.30
2022-08-27T15:40:26.939Z,60.00
2022-08-27T15:42:59.957Z,61.20
2022-08-27T15:45:27.613Z,61.20
2022-08-27T15:47:55.809Z,59.50
2022-08-27T15:50:23.014Z,63.10
2022-08-27T15:52:54.834Z,63.40
2022-08-27T15:55:25.176Z,62.00
2022-08-27T15:57:52.132Z,61.10
2022-08-27T16:00:20.188Z,61.20
2022-08-27T16:02:47.090Z,61.70
2022-08-27T16:05:15.759Z,62.50
2022-08-27T16:07:43.114Z,62.00
2022-08-27T16:10:11.030Z,60.20
2022-08-27T16:12:38.205Z,60.50
2022-08-27T16:15:06.643Z,61.80
2022-08-27T16:17:34.791Z,62.40
2022-08-27T16:20:02.123Z,62.30
2022-08-27T16:22:29.279Z,62.40
2022-08-27T16:24:56.089Z,62.60
2022-08-27T16:27:23.112Z,62.60
2022-08-27T16:29:49.804Z,63.40
2022-08-27T16:32:18.938Z,63.00
2022-08-27T16:34:47.105Z,64.00
2022-08-27T16:37:14.162Z,64.30
2022-08-27T16:39:41.444Z,63.30
2022-08-27T16:42:10.227Z,63.60
2022-08-27T16:44:37.884Z,63.40
2022-08-27T16:47:06.115Z,64.50
2022-08-27T16:49:51.493Z,63.50
2022-08-27T16:52:19.664Z,64.40
2022-08-27T16:54:46.664Z,64.00
2022-08-27T16:57:13.521Z,64.20
2022-08-27T16:59:40.249Z,64.10
2022-08-27T17:02:12.239Z,64.50
2022-08-27T17:04:42.151Z,65.20
2022-08-27T17:07:09.887Z,65.10
2022-08-27T17:09:37.433Z,65.50
2022-08-27T17:12:05.331Z,65.00
2022-08-27T17:14:37.848Z,65.40
2022-08-27T17:17:06.318Z,65.90
2022-08-27T17:19:34.805Z,66.20
2022-08-27T17:22:03.547Z,66.70
2022-08-27T17:24:30.437Z,67.20
2022-08-27T17:26:57.591Z,67.10
2022-08-27T17:29:24.487Z,67.20
2022-08-27T17:31:51.337Z,67.50
2022-08-27T17:34:22.854Z,67.40
2022-08-27T17:36:50.636Z,68.00
2022-08-27T17:39:18.695Z,68.00
2022-08-27T17:41:50.978Z,67.90
2022-08-27T17:44:31.616Z,67.90
2022-08-27T17:47:02.813Z,68.70
2022-08-27T17:49:31.170Z,69.40
2022-08-27T17:52:01.447Z,69.20
2022-08-27T17:54:43.380Z,69.60
2022-08-27T17:57:26.181Z,70.00
2022-08-27T17:59:54.557Z,70.00
2022-08-27T18:02:25.615Z,69.50
2022-08-27T18:04:52.494Z,69.70
2022-08-27T18:07:19.622Z,67.10
2022-08-27T18:09:48.016Z,66.50
2022-08-27T18:12:18.054Z,66.80
2022-08-27T18:14:48.517Z,66.60
2022-08-27T18:17:15.272Z,65.90
2022-08-27T18:19:45.712Z,71.30
2022-08-27T18:22:12.678Z,78.20
2022-08-27T18:24:39.433Z,85.90
2022-08-27T18:27:06.432Z,90.80
2022-08-27T18:29:33.685Z,92.40
2022-08-27T18:32:00.520Z,93.50
2022-08-27T18:34:27.813Z,94.90
2022-08-27T18:36:54.583Z,96.50
2022-08-27T18:39:21.338Z,97.40
2022-08-27T18:41:52.894Z,98.30
2022-08-27T18:44:19.765Z,98.70
2022-08-27T18:46:46.576Z,99.50
2022-08-27T18:49:13.516Z,99.90
2022-08-27T18:51:47.083Z,99.90
2022-08-27T18:54:17.414Z,99.90
2022-08-27T18:56:44.427Z,99.90
2022-08-27T18:59:13.031Z,99.90
2022-08-27T19:01:40.373Z,99.90
2022-08-27T19:04:07.434Z,99.90
2022-08-27T19:06:34.224Z,99.90
2022-08-27T19:09:02.153Z,99.90
2022-08-27T19:11:30.478Z,99.90
2022-08-27T19:13:57.548Z,99.90
2022-08-27T19:16:50.185Z,99.90
2022-08-27T19:19:17.830Z,99.90
2022-08-27T19:21:49.224Z,99.90
2022-08-27T19:24:19.406Z,99.90
2022-08-27T19:26:46.873Z,99.90
2022-08-27T19:29:13.725Z,99.90
2022-08-27T19:31:40.940Z,99.90
2022-08-27T19:34:08.804Z,99.90
2022-08-27T19:36:39.901Z,99.90
2022-08-27T19:39:09.526Z,99.90
2022-08-27T19:41:36.766Z,99.90
2022-08-27T19:44:03.799Z,99.90
2022-08-27T19:46:32.752Z,99.90
2022-08-27T19:48:59.518Z,99.90
2022-08-27T19:51:26.307Z,99.90
2022-08-27T19:53:53.130Z,99.90
2022-08-27T19:56:20.162Z,99.90
2022-08-27T19:58:47.294Z,99.90
2022-08-27T20:01:14.156Z,99.90
2022-08-27T20:03:41.373Z,99.90
2022-08-27T20:06:08.378Z,99.90
2022-08-27T20:08:35.238Z,99.90
2022-08-27T20:11:02.029Z,99.90
2022-08-27T20:13:32.862Z,99.90
2022-08-27T20:16:00.157Z,99.90
2022-08-27T20:18:27.002Z,99.90
2022-08-27T20:20:53.837Z,99.90
2022-08-27T20:23:21.261Z,99.90
2022-08-27T20:25:48.026Z,99.90
2022-08-27T20:28:38.330Z,99.90
2022-08-27T20:31:02.307Z,99.90
2022-08-27T20:33:29.124Z,99.90
2022-08-27T20:35:58.205Z,99.90
2022-08-27T20:38:25.394Z,99.90
2022-08-27T20:40:52.105Z,99.90
2022-08-27T20:43:19.097Z,99.90
2022-08-27T20:45:45.891Z,99.90
2022-08-27T20:48:13.291Z,99.90
2022-08-27T20:50:40.275Z,99.90
2022-08-27T20:53:07.124Z,99.90
2022-08-27T20:55:34.601Z,99.90
2022-08-27T20:58:20.077Z,99.90
2022-08-27T21:00:46.937Z,99.90
2022-08-27T21:03:14.330Z,99.90
2022-08-27T21:05:43.614Z,99.90
2022-08-27T21:08:10.563Z,99.80
2022-08-27T21:10:47.580Z,99.60
2022-08-27T21:13:15.098Z,99.80
2022-08-27T21:15:41.952Z,99.90
2022-08-27T21:18:09.148Z,99.90
2022-08-27T21:20:35.860Z,99.90
2022-08-27T21:23:02.734Z,99.90
2022-08-27T21:25:29.513Z,99.90
2022-08-27T21:27:57.792Z,99.90
2022-08-27T21:30:26.372Z,99.90
2022-08-27T21:32:57.825Z,99.10
2022-08-27T21:35:29.263Z,99.10
2022-08-27T21:37:57.622Z,98.70
2022-08-27T21:40:25.672Z,99.10
2022-08-27T21:42:53.176Z,99.40
2022-08-27T21:45:20.489Z,99.60
2022-08-27T21:47:48.039Z,99.80
2022-08-27T21:50:14.856Z,99.90
2022-08-27T21:52:41.616Z,99.90
2022-08-27T21:55:09.217Z,99.90
2022-08-27T21:57:36.151Z,99.90
2022-08-27T22:00:22.320Z,99.90
2022-08-27T22:02:49.755Z,99.90
2022-08-27T22:05:16.651Z,99.90
2022-08-27T22:07:43.443Z,99.90
2022-08-27T22:10:10.230Z,99.90
2022-08-27T22:12:37.079Z,99.90
2022-08-27T22:15:06.613Z,99.90
2022-08-27T22:17:33.424Z,99.80
2022-08-27T22:20:00.300Z,98.90
2022-08-27T22:22:30.851Z,98.50
2022-08-27T22:24:57.929Z,98.00
2022-08-27T22:27:24.700Z,98.10
2022-08-27T22:29:51.416Z,98.10
2022-08-27T22:32:18.277Z,98.00
2022-08-27T22:34:45.092Z,97.90
2022-08-27T22:37:11.867Z,97.80
2022-08-27T22:39:38.647Z,97.60
2022-08-27T22:42:05.891Z,97.40
2022-08-27T22:44:32.660Z,97.30
2022-08-27T22:46:59.505Z,97.50
2022-08-27T22:49:26.812Z,97.10
2022-08-27T22:51:53.529Z,96.40
2022-08-27T22:54:20.318Z,96.70
2022-08-27T22:56:47.046Z,97.10
2022-08-27T22:59:13.913Z,96.80
2022-08-27T23:01:41.326Z,97.10
2022-08-27T23:04:08.431Z,96.80
2022-08-27T23:06:35.553Z,96.60
2022-08-27T23:09:02.310Z,97.00
2022-08-27T23:11:31.674Z,96.60
2022-08-27T23:13:59.342Z,96.50
2022-08-27T23:16:27.103Z,96.30
2022-08-27T23:18:54.515Z,96.40
2022-08-27T23:21:21.414Z,96.60
2022-08-27T23:23:48.185Z,96.70
2022-08-27T23:26:33.814Z,96.70
2022-08-27T23:29:00.670Z,96.60
2022-08-27T23:31:27.606Z,96.60
2022-08-27T23:33:55.908Z,96.00
2022-08-27T23:36:23.024Z,96.00
2022-08-27T23:38:49.825Z,96.00
2022-08-27T23:41:16.638Z,95.70
2022-08-27T23:43:45.026Z,95.80
2022-08-27T23:46:12.318Z,95.60
2022-08-27T23:48:39.417Z,95.50
2022-08-27T23:51:07.631Z,95.60
2022-08-27T23:53:34.962Z,95.70
2022-08-27T23:56:01.689Z,95.70
2022-08-27T23:58:28.496Z,95.40
